createdAt,value
2022-07-27T00:01:51.779Z,6.20
2022-07-27T00:15:59.322Z,5.57
2022-07-27T00:18:29.622Z,5.63
2022-07-27T00:24:15.860Z,5.70
2022-07-27T00:27:07.466Z,5.57
2022-07-27T00:29:37.942Z,6.10
2022-07-27T00:32:25.833Z,6.07
2022-07-27T00:35:30.770Z,6.00
2022-07-27T00:38:00.239Z,6.47
2022-07-27T00:49:58.724Z,5.30
2022-07-27T00:52:31.200Z,5.70
2022-07-27T00:55:07.158Z,5.60
2022-07-27T01:08:38.578Z,5.50
2022-07-27T01:11:07.424Z,5.90
2022-07-27T01:13:36.541Z,4.50
2022-07-27T01:16:06.935Z,5.03
2022-07-27T01:18:44.583Z,5.07
2022-07-27T01:21:14.823Z,4.47
2022-07-27T01:23:42.179Z,4.30
2022-07-27T01:33:17.162Z,4.67
2022-07-27T01:35:44.824Z,4.90
2022-07-27T01:38:27.235Z,5.10
2022-07-27T01:41:34.118Z,5.53
2022-07-27T01:44:09.202Z,5.80
2022-07-27T01:46:36.561Z,5.57
2022-07-27T01:49:04.880Z,4.80
2022-07-27T01:51:32.244Z,5.20
2022-07-27T01:54:02.160Z,5.03
2022-07-27T01:56:35.353Z,4.70
2022-07-27T01:59:02.400Z,4.80
2022-07-27T02:04:10.717Z,4.57
2022-07-27T02:06:37.985Z,5.00
2022-07-27T02:09:05.325Z,5.17
2022-07-27T02:14:52.789Z,5.50
2022-07-27T02:17:33.144Z,4.63
2022-07-27T02:20:10.335Z,5.00
2022-07-27T02:22:37.693Z,6.03
2022-07-27T02:25:09.143Z,5.87
2022-07-27T02:27:36.704Z,5.50
2022-07-27T02:30:05.837Z,5.00
2022-07-27T02:32:39.203Z,4.93
2022-07-27T02:35:18.516Z,4.73
2022-07-27T02:37:53.366Z,5.13
2022-07-27T02:44:08.839Z,4.70
2022-07-27T02:46:44.824Z,4.93
2022-07-27T02:49:12.462Z,5.23
2022-07-27T03:02:09.822Z,5.80
2022-07-27T03:04:40.172Z,5.53
2022-07-27T03:07:10.750Z,6.20
2022-07-27T03:09:38.341Z,5.60
2022-07-27T03:12:14.870Z,5.40
2022-07-27T03:14:55.276Z,5.30
2022-07-27T03:17:33.128Z,5.63
2022-07-27T03:20:00.472Z,5.20
2022-07-27T03:22:31.064Z,5.13
2022-07-27T03:24:58.381Z,5.60
2022-07-27T03:31:24.113Z,4.40
2022-07-27T03:33:51.380Z,6.77
2022-07-27T03:36:28.865Z,4.67
2022-07-27T03:39:05.695Z,4.90
2022-07-27T03:57:29.064Z,4.07
2022-07-27T04:00:04.818Z,4.70
2022-07-27T04:02:35.276Z,4.10
2022-07-27T04:05:14.276Z,4.43
2022-07-27T04:07:41.585Z,4.50
2022-07-27T04:10:10.235Z,4.50
2022-07-27T04:12:41.501Z,4.10
2022-07-27T04:15:16.090Z,4.10
2022-07-27T04:17:55.422Z,4.60
2022-07-27T04:20:27.448Z,3.90
2022-07-27T04:22:54.527Z,4.30
2022-07-27T04:25:22.198Z,5.07
2022-07-27T04:27:49.828Z,4.33
2022-07-27T04:30:17.201Z,4.33
2022-07-27T04:32:44.579Z,4.97
2022-07-27T04:35:14.500Z,4.10
2022-07-27T04:37:41.849Z,3.97
2022-07-27T04:40:26.613Z,4.00
2022-07-27T04:43:24.373Z,3.70
2022-07-27T04:49:26.831Z,3.80
2022-07-27T04:51:53.931Z,3.53
2022-07-27T04:54:23.592Z,3.30
2022-07-27T04:56:51.302Z,3.37
2022-07-27T04:59:26.709Z,3.13
2022-07-27T05:01:57.243Z,3.00
2022-07-27T05:04:27.502Z,3.27
2022-07-27T05:09:51.264Z,3.67
2022-07-27T05:15:59.095Z,3.43
2022-07-27T05:18:26.248Z,3.00
2022-07-27T05:20:54.003Z,3.30
2022-07-27T05:27:06.356Z,3.70
2022-07-27T05:30:14.177Z,3.30
2022-07-27T05:32:48.852Z,3.40
2022-07-27T05:35:39.603Z,3.50
2022-07-27T05:38:09.483Z,3.53
2022-07-27T05:40:36.577Z,3.53
2022-07-27T05:43:29.188Z,3.87
2022-07-27T05:45:56.555Z,4.00
2022-07-27T05:48:26.908Z,3.20
2022-07-27T05:50:53.999Z,3.40
2022-07-27T05:53:21.205Z,3.57
2022-07-27T05:55:59.557Z,3.60
2022-07-27T05:59:18.062Z,3.70
2022-07-27T06:01:47.829Z,3.23
2022-07-27T06:04:15.833Z,2.83
2022-07-27T06:07:01.505Z,3.30
2022-07-27T06:09:48.717Z,3.10
2022-07-27T06:12:15.614Z,3.30
2022-07-27T06:14:42.805Z,3.53
2022-07-27T06:17:13.044Z,3.77
2022-07-27T06:19:40.273Z,3.33
2022-07-27T06:22:07.762Z,3.00
2022-07-27T06:24:34.908Z,3.00
2022-07-27T06:27:01.946Z,3.30
2022-07-27T06:29:39.984Z,2.87
2022-07-27T06:32:07.211Z,2.90
2022-07-27T06:34:38.404Z,2.70
2022-07-27T06:37:09.512Z,2.80
2022-07-27T06:39:36.583Z,3.23
2022-07-27T06:42:03.804Z,2.90
2022-07-27T06:44:30.875Z,2.87
2022-07-27T06:46:58.027Z,2.90
2022-07-27T06:49:25.264Z,2.80
2022-07-27T06:51:53.336Z,3.03
2022-07-27T06:54:20.641Z,3.33
2022-07-27T06:56:48.039Z,2.80
2022-07-27T06:59:15.507Z,3.10
2022-07-27T07:05:10.088Z,3.27
2022-07-27T07:07:37.140Z,3.30
2022-07-27T07:10:16.552Z,2.70
2022-07-27T07:13:21.645Z,3.23
2022-07-27T07:19:05.817Z,2.83
2022-07-27T07:21:32.695Z,2.60
2022-07-27T07:23:59.613Z,2.80
2022-07-27T07:26:29.482Z,2.43
2022-07-27T07:28:56.470Z,2.70
2022-07-27T07:31:24.033Z,2.50
2022-07-27T07:33:51.584Z,2.73
2022-07-27T07:36:18.604Z,3.10
2022-07-27T07:38:45.753Z,2.60
2022-07-27T07:41:13.362Z,2.23
2022-07-27T07:43:42.218Z,2.00
2022-07-27T07:46:09.627Z,3.10
2022-07-27T07:48:36.750Z,2.60
2022-07-27T07:51:03.845Z,2.93
2022-07-27T07:53:30.923Z,2.50
2022-07-27T07:55:58.570Z,2.30
2022-07-27T07:58:25.852Z,2.37
2022-07-27T08:00:52.799Z,2.93
2022-07-27T08:03:20.212Z,2.80
2022-07-27T08:05:47.302Z,2.43
2022-07-27T08:08:14.184Z,2.80
2022-07-27T08:10:41.513Z,2.90
2022-07-27T08:13:08.852Z,2.90
2022-07-27T08:15:38.410Z,2.80
2022-07-27T08:18:06.447Z,2.40
2022-07-27T08:20:34.694Z,3.27
2022-07-27T08:23:05.314Z,2.70
2022-07-27T08:25:35.641Z,2.90
2022-07-27T08:28:03.084Z,3.17
2022-07-27T08:30:30.564Z,2.87
2022-07-27T08:33:01.817Z,2.70
2022-07-27T08:35:30.442Z,2.53
2022-07-27T08:37:58.361Z,2.70
2022-07-27T08:40:44.106Z,2.80
2022-07-27T08:43:21.480Z,2.80
2022-07-27T08:45:59.534Z,2.83
2022-07-27T08:48:28.259Z,2.60
2022-07-27T08:50:56.020Z,2.43
2022-07-27T08:53:23.736Z,2.77
2022-07-27T08:55:50.843Z,3.53
2022-07-27T08:58:18.485Z,3.17
2022-07-27T09:00:49.973Z,2.20
2022-07-27T09:03:20.717Z,2.13
2022-07-27T09:05:53.044Z,2.60
2022-07-27T09:08:24.665Z,2.77
2022-07-27T09:10:54.622Z,2.70
2022-07-27T09:13:27.232Z,2.50
2022-07-27T09:16:17.480Z,2.57
2022-07-27T09:18:46.389Z,2.60
2022-07-27T09:21:21.062Z,2.40
2022-07-27T09:23:55.001Z,2.93
2022-07-27T09:26:32.315Z,2.30
2022-07-27T09:29:02.678Z,2.20
2022-07-27T09:31:29.854Z,2.10
2022-07-27T09:33:58.974Z,2.60
2022-07-27T09:36:28.289Z,2.23
2022-07-27T09:39:03.796Z,2.80
2022-07-27T09:41:45.806Z,2.30
2022-07-27T09:44:31.936Z,2.50
2022-07-27T09:47:00.007Z,2.33
2022-07-27T09:49:35.316Z,1.83
2022-07-27T09:52:03.761Z,2.17
2022-07-27T09:54:45.317Z,2.50
2022-07-27T09:57:12.555Z,2.33
2022-07-27T09:59:39.989Z,2.37
2022-07-27T10:02:07.352Z,2.60
2022-07-27T10:04:34.423Z,1.90
2022-07-27T10:07:03.894Z,2.10
2022-07-27T10:09:33.899Z,2.03
2022-07-27T10:12:02.022Z,2.10
2022-07-27T10:14:28.943Z,2.77
2022-07-27T10:16:56.957Z,2.33
2022-07-27T10:19:37.123Z,1.97
2022-07-27T10:22:04.128Z,1.80
2022-07-27T10:24:34.825Z,1.63
2022-07-27T10:27:34.082Z,1.60
2022-07-27T10:30:00.925Z,1.70
2022-07-27T10:32:32.869Z,1.40
2022-07-27T10:35:01.352Z,1.57
2022-07-27T10:37:35.131Z,2.30
2022-07-27T10:40:22.109Z,2.00
2022-07-27T10:42:54.627Z,2.07
2022-07-27T10:45:22.301Z,2.00
2022-07-27T10:47:52.363Z,2.23
2022-07-27T10:50:25.983Z,2.17
2022-07-27T10:53:02.531Z,2.00
2022-07-27T10:55:32.759Z,1.70
2022-07-27T10:58:14.972Z,1.90
2022-07-27T11:00:55.184Z,1.60
2022-07-27T11:03:26.590Z,1.80
2022-07-27T11:06:01.248Z,2.10
2022-07-27T11:08:46.701Z,2.40
2022-07-27T11:11:16.698Z,1.53
2022-07-27T11:13:43.690Z,1.50
2022-07-27T11:16:23.839Z,1.43
2022-07-27T11:19:01.643Z,1.50
2022-07-27T11:21:39.572Z,1.47
2022-07-27T11:24:17.470Z,2.00
2022-07-27T11:26:48.705Z,1.87
2022-07-27T11:29:17.868Z,1.63
2022-07-27T11:32:02.270Z,2.00
2022-07-27T11:34:32.460Z,2.00
2022-07-27T11:37:03.581Z,2.20
2022-07-27T11:42:23.487Z,2.00
2022-07-27T11:44:52.917Z,1.50
2022-07-27T11:47:21.739Z,1.63
2022-07-27T11:49:48.721Z,1.63
2022-07-27T11:52:18.707Z,1.80
2022-07-27T11:54:51.732Z,1.60
2022-07-27T11:57:20.546Z,1.53
2022-07-27T11:59:47.495Z,1.70
2022-07-27T12:02:23.109Z,1.60
2022-07-27T12:04:52.630Z,1.43
2022-07-27T12:07:31.275Z,1.60
2022-07-27T12:10:02.125Z,1.30
2022-07-27T12:12:34.119Z,1.40
2022-07-27T12:15:16.757Z,1.13
2022-07-27T12:17:57.659Z,1.30
2022-07-27T12:20:33.194Z,1.53
2022-07-27T12:23:05.689Z,1.37
2022-07-27T12:25:33.493Z,1.30
2022-07-27T12:28:06.581Z,1.20
2022-07-27T12:30:42.401Z,1.53
2022-07-27T12:33:25.758Z,1.97
2022-07-27T12:35:52.640Z,1.70
2022-07-27T12:38:19.611Z,1.97
2022-07-27T12:40:58.147Z,2.00
2022-07-27T12:43:27.311Z,1.80
2022-07-27T12:45:55.720Z,2.10
2022-07-27T12:48:28.133Z,2.17
2022-07-27T12:51:05.901Z,2.10
2022-07-27T12:53:33.824Z,2.00
2022-07-27T12:56:10.029Z,1.87
2022-07-27T12:58:37.779Z,1.80
2022-07-27T13:01:06.227Z,1.90
2022-07-27T13:03:33.329Z,1.87
2022-07-27T13:06:07.909Z,1.87
2022-07-27T13:08:39.261Z,2.00
2022-07-27T13:11:06.163Z,1.90
2022-07-27T13:13:33.937Z,2.00
2022-07-27T13:16:01.303Z,2.03
2022-07-27T13:18:28.299Z,1.97
2022-07-27T13:20:55.266Z,2.20
2022-07-27T13:23:22.715Z,2.20
2022-07-27T13:25:50.038Z,1.87
2022-07-27T13:28:17.103Z,2.40
2022-07-27T13:30:44.122Z,2.17
2022-07-27T13:33:11.273Z,2.20
2022-07-27T13:35:38.221Z,1.97
2022-07-27T13:38:05.099Z,2.10
2022-07-27T13:40:31.936Z,1.97
2022-07-27T13:42:58.801Z,1.70
2022-07-27T13:45:25.783Z,1.83
2022-07-27T13:47:53.969Z,1.80
2022-07-27T13:50:22.214Z,2.10
2022-07-27T13:52:49.200Z,2.07
2022-07-27T13:55:17.288Z,1.90
2022-07-27T13:57:45.382Z,1.93
2022-07-27T14:00:13.049Z,2.13
2022-07-27T14:02:40.072Z,2.07
2022-07-27T14:05:10.044Z,1.80
2022-07-27T14:07:40.183Z,2.07
2022-07-27T14:10:30.413Z,2.67
2022-07-27T14:13:08.229Z,2.00
2022-07-27T14:15:55.587Z,2.40
2022-07-27T14:18:26.995Z,2.10
2022-07-27T14:20:55.529Z,2.27
2022-07-27T14:23:23.756Z,2.00
2022-07-27T14:25:51.414Z,2.20
2022-07-27T14:28:18.821Z,2.33
2022-07-27T14:30:47.272Z,2.20
2022-07-27T14:33:14.810Z,1.77
2022-07-27T14:35:41.894Z,2.10
2022-07-27T14:38:09.482Z,2.00
2022-07-27T14:40:36.921Z,2.30
2022-07-27T14:43:04.283Z,2.30
2022-07-27T14:45:44.853Z,2.23
2022-07-27T14:48:23.081Z,2.20
2022-07-27T14:50:55.958Z,2.13
2022-07-27T14:53:22.836Z,2.50
2022-07-27T14:55:49.812Z,2.10
2022-07-27T14:58:17.081Z,2.00
2022-07-27T15:00:44.190Z,2.10
2022-07-27T15:03:14.767Z,1.90
2022-07-27T15:05:49.598Z,1.60
2022-07-27T15:08:18.773Z,1.70
2022-07-27T15:10:46.669Z,1.87
2022-07-27T15:13:14.731Z,1.97
2022-07-27T15:15:41.760Z,2.00
2022-07-27T15:18:09.056Z,2.33
2022-07-27T15:20:36.299Z,1.93
2022-07-27T15:23:04.132Z,2.27
2022-07-27T15:25:31.385Z,1.90
2022-07-27T15:27:58.698Z,2.20
2022-07-27T15:30:25.614Z,2.20
2022-07-27T15:32:52.519Z,1.97
2022-07-27T15:35:19.516Z,1.90
2022-07-27T15:37:54.716Z,1.70
2022-07-27T15:40:38.509Z,2.20
2022-07-27T15:43:16.598Z,2.57
2022-07-27T15:45:47.322Z,2.20
2022-07-27T15:48:16.603Z,2.37
2022-07-27T15:50:50.171Z,2.17
2022-07-27T15:53:30.700Z,1.80
2022-07-27T15:56:11.422Z,1.87
2022-07-27T15:58:41.553Z,2.40
2022-07-27T16:01:11.885Z,2.13
2022-07-27T16:03:39.466Z,2.40
2022-07-27T16:06:09.920Z,2.17
2022-07-27T16:08:37.277Z,2.30
2022-07-27T16:11:33.398Z,2.10
2022-07-27T16:14:14.777Z,2.13
2022-07-27T16:16:42.001Z,2.13
2022-07-27T16:19:15.842Z,2.40
2022-07-27T16:21:55.415Z,1.93
2022-07-27T16:24:25.026Z,2.50
2022-07-27T16:26:52.746Z,2.60
2022-07-27T16:29:22.878Z,2.07
2022-07-27T16:31:58.190Z,2.10
2022-07-27T16:34:31.889Z,2.20
2022-07-27T16:37:05.942Z,2.03
2022-07-27T16:46:43.319Z,2.43
2022-07-27T16:49:13.452Z,1.90
2022-07-27T16:52:17.560Z,2.43
2022-07-27T16:54:47.988Z,2.23
2022-07-27T16:57:47.467Z,2.60
2022-07-27T17:03:52.500Z,2.60
2022-07-27T17:06:44.441Z,2.30
2022-07-27T17:09:23.090Z,2.10
2022-07-27T17:11:53.788Z,2.13
2022-07-27T17:14:30.640Z,2.17
2022-07-27T17:17:54.513Z,2.53
2022-07-27T17:20:35.653Z,2.33
2022-07-27T17:23:12.195Z,2.57
2022-07-27T17:26:03.103Z,2.53
2022-07-27T17:32:48.304Z,2.67
2022-07-27T17:36:01.742Z,2.57
